sensor_id;sensor_type;location;lat;lon;timestamp;temperature;humidity
2447;DHT22;26430;48.818;9.244;2022-07-06T00:01:16;21.10;84.70
2447;DHT22;26430;48.818;9.244;2022-07-06T00:03:42;21.00;85.30
2447;DHT22;26430;48.818;9.244;2022-07-06T00:06:08;21.00;85.30
2447;DHT22;26430;48.818;9.244;2022-07-06T00:08:34;21.00;85.30
2447;DHT22;26430;48.818;9.244;2022-07-06T00:11:00;20.80;86.10
2447;DHT22;26430;48.818;9.244;2022-07-06T00:13:27;20.70;86.00
2447;DHT22;26430;48.818;9.244;2022-07-06T00:15:53;20.60;86.70
2447;DHT22;26430;48.818;9.244;2022-07-06T00:18:19;20.50;87.10
2447;DHT22;26430;48.818;9.244;2022-07-06T00:20:45;20.60;87.00
2447;DHT22;26430;48.818;9.244;2022-07-06T00:23:10;20.60;87.20
2447;DHT22;26430;48.818;9.244;2022-07-06T00:25:36;20.50;87.40
2447;DHT22;26430;48.818;9.244;2022-07-06T00:28:02;20.40;88.10
2447;DHT22;26430;48.818;9.244;2022-07-06T00:30:28;20.20;88.20
2447;DHT22;26430;48.818;9.244;2022-07-06T00:32:54;20.40;89.40
2447;DHT22;26430;48.818;9.244;2022-07-06T00:35:20;20.40;88.80
2447;DHT22;26430;48.818;9.244;2022-07-06T00:37:45;20.50;88.60
2447;DHT22;26430;48.818;9.244;2022-07-06T00:40:11;20.40;89.10
2447;DHT22;26430;48.818;9.244;2022-07-06T00:45:07;20.50;88.60
2447;DHT22;26430;48.818;9.244;2022-07-06T00:47:32;20.60;89.10
2447;DHT22;26430;48.818;9.244;2022-07-06T00:49:58;20.60;88.70
2447;DHT22;26430;48.818;9.244;2022-07-06T00:52:45;20.40;89.30
2447;DHT22;26430;48.818;9.244;2022-07-06T00:55:11;20.20;90.00
2447;DHT22;26430;48.818;9.244;2022-07-06T00:57:38;20.10;90.20
2447;DHT22;26430;48.818;9.244;2022-07-06T01:00:05;20.00;90.50
2447;DHT22;26430;48.818;9.244;2022-07-06T01:02:32;20.10;90.50
2447;DHT22;26430;48.818;9.244;2022-07-06T01:04:58;20.10;90.20
2447;DHT22;26430;48.818;9.244;2022-07-06T01:07:24;20.10;90.30
2447;DHT22;26430;48.818;9.244;2022-07-06T01:09:50;20.10;90.40
2447;DHT22;26430;48.818;9.244;2022-07-06T01:12:17;20.20;90.10
2447;DHT22;26430;48.818;9.244;2022-07-06T01:14:42;20.30;90.20
2447;DHT22;26430;48.818;9.244;2022-07-06T01:17:08;20.30;90.20
2447;DHT22;26430;48.818;9.244;2022-07-06T01:19:34;20.40;90.40
2447;DHT22;26430;48.818;9.244;2022-07-06T01:22:00;20.50;90.00
2447;DHT22;26430;48.818;9.244;2022-07-06T01:24:26;20.40;90.00
2447;DHT22;26430;48.818;9.244;2022-07-06T01:26:52;20.20;90.20
2447;DHT22;26430;48.818;9.244;2022-07-06T01:29:18;20.00;90.40
2447;DHT22;26430;48.818;9.244;2022-07-06T01:31:48;20.00;90.80
2447;DHT22;26430;48.818;9.244;2022-07-06T01:34:15;20.00;91.00
2447;DHT22;26430;48.818;9.244;2022-07-06T01:36:41;20.00;90.90
2447;DHT22;26430;48.818;9.244;2022-07-06T01:39:08;20.10;90.80
2447;DHT22;26430;48.818;9.244;2022-07-06T01:41:34;20.10;90.60
2447;DHT22;26430;48.818;9.244;2022-07-06T01:44:00;19.90;90.60
2447;DHT22;26430;48.818;9.244;2022-07-06T01:46:25;20.10;90.50
2447;DHT22;26430;48.818;9.244;2022-07-06T01:48:51;20.00;90.60
2447;DHT22;26430;48.818;9.244;2022-07-06T01:51:17;20.00;90.50
2447;DHT22;26430;48.818;9.244;2022-07-06T01:53:43;19.90;90.70
2447;DHT22;26430;48.818;9.244;2022-07-06T01:56:09;20.00;90.60
2447;DHT22;26430;48.818;9.244;2022-07-06T01:58:35;19.90;90.50
2447;DHT22;26430;48.818;9.244;2022-07-06T02:01:09;19.70;90.70
2447;DHT22;26430;48.818;9.244;2022-07-06T02:03:35;19.60;91.00
2447;DHT22;26430;48.818;9.244;2022-07-06T02:06:02;19.50;91.00
2447;DHT22;26430;48.818;9.244;2022-07-06T02:08:28;19.30;91.20
2447;DHT22;26430;48.818;9.244;2022-07-06T02:10:53;19.20;91.30
2447;DHT22;26430;48.818;9.244;2022-07-06T02:13:19;19.00;91.60
2447;DHT22;26430;48.818;9.244;2022-07-06T02:15:45;19.00;91.70
2447;DHT22;26430;48.818;9.244;2022-07-06T02:18:10;19.00;91.50
2447;DHT22;26430;48.818;9.244;2022-07-06T02:20:36;19.10;91.70
2447;DHT22;26430;48.818;9.244;2022-07-06T02:23:02;19.20;91.40
2447;DHT22;26430;48.818;9.244;2022-07-06T02:25:28;19.30;91.40
2447;DHT22;26430;48.818;9.244;2022-07-06T02:27:54;19.40;91.40
2447;DHT22;26430;48.818;9.244;2022-07-06T02:30:19;19.30;91.20
2447;DHT22;26430;48.818;9.244;2022-07-06T02:32:45;19.20;91.70
2447;DHT22;26430;48.818;9.244;2022-07-06T02:35:11;19.10;91.50
2447;DHT22;26430;48.818;9.244;2022-07-06T02:37:37;18.90;91.80
2447;DHT22;26430;48.818;9.244;2022-07-06T02:40:03;19.00;92.00
2447;DHT22;26430;48.818;9.244;2022-07-06T02:42:29;18.90;92.20
2447;DHT22;26430;48.818;9.244;2022-07-06T02:44:55;18.70;92.30
2447;DHT22;26430;48.818;9.244;2022-07-06T02:47:20;18.70;92.50
2447;DHT22;26430;48.818;9.244;2022-07-06T02:49:46;18.70;92.60
2447;DHT22;26430;48.818;9.244;2022-07-06T02:52:12;18.60;92.70
2447;DHT22;26430;48.818;9.244;2022-07-06T02:54:37;18.70;93.00
2447;DHT22;26430;48.818;9.244;2022-07-06T02:57:03;18.70;93.00
2447;DHT22;26430;48.818;9.244;2022-07-06T02:59:29;18.70;92.90
2447;DHT22;26430;48.818;9.244;2022-07-06T03:01:55;18.50;93.20
2447;DHT22;26430;48.818;9.244;2022-07-06T03:04:20;18.50;93.60
2447;DHT22;26430;48.818;9.244;2022-07-06T03:06:46;18.40;93.60
2447;DHT22;26430;48.818;9.244;2022-07-06T03:09:12;18.30;93.90
2447;DHT22;26430;48.818;9.244;2022-07-06T03:11:37;18.30;93.90
2447;DHT22;26430;48.818;9.244;2022-07-06T03:14:04;18.20;94.40
2447;DHT22;26430;48.818;9.244;2022-07-06T03:16:30;18.20;94.90
2447;DHT22;26430;48.818;9.244;2022-07-06T03:18:56;18.20;94.90
2447;DHT22;26430;48.818;9.244;2022-07-06T03:21:22;18.30;94.60
2447;DHT22;26430;48.818;9.244;2022-07-06T03:23:48;18.40;94.60
2447;DHT22;26430;48.818;9.244;2022-07-06T03:26:14;18.30;95.30
2447;DHT22;26430;48.818;9.244;2022-07-06T03:28:39;18.10;95.60
2447;DHT22;26430;48.818;9.244;2022-07-06T03:31:05;18.00;95.80
2447;DHT22;26430;48.818;9.244;2022-07-06T03:33:31;18.00;96.70
2447;DHT22;26430;48.818;9.244;2022-07-06T03:35:56;18.10;95.90
2447;DHT22;26430;48.818;9.244;2022-07-06T03:38:22;18.00;96.00
2447;DHT22;26430;48.818;9.244;2022-07-06T03:40:48;17.90;96.10
2447;DHT22;26430;48.818;9.244;2022-07-06T03:43:13;17.70;96.00
2447;DHT22;26430;48.818;9.244;2022-07-06T03:45:39;17.80;96.40
2447;DHT22;26430;48.818;9.244;2022-07-06T03:48:05;17.80;96.70
2447;DHT22;26430;48.818;9.244;2022-07-06T03:50:31;17.80;97.00
2447;DHT22;26430;48.818;9.244;2022-07-06T03:52:56;17.80;97.40
2447;DHT22;26430;48.818;9.244;2022-07-06T03:55:22;17.80;97.20
2447;DHT22;26430;48.818;9.244;2022-07-06T03:57:48;18.10;97.10
2447;DHT22;26430;48.818;9.244;2022-07-06T04:00:14;18.10;97.20
2447;DHT22;26430;48.818;9.244;2022-07-06T04:02:39;18.20;97.20
2447;DHT22;26430;48.818;9.244;2022-07-06T04:05:05;18.00;97.40
2447;DHT22;26430;48.818;9.244;2022-07-06T04:07:31;17.90;97.90
2447;DHT22;26430;48.818;9.244;2022-07-06T04:09:57;17.90;97.90
2447;DHT22;26430;48.818;9.244;2022-07-06T04:12:22;17.90;98.10
2447;DHT22;26430;48.818;9.244;2022-07-06T04:14:48;17.30;98.50
2447;DHT22;26430;48.818;9.244;2022-07-06T04:17:14;17.50;99.40
2447;DHT22;26430;48.818;9.244;2022-07-06T04:19:58;17.60;99.70
2447;DHT22;26430;48.818;9.244;2022-07-06T04:22:24;17.70;99.80
2447;DHT22;26430;48.818;9.244;2022-07-06T04:24:49;17.70;99.90
2447;DHT22;26430;48.818;9.244;2022-07-06T04:27:15;17.70;99.90
2447;DHT22;26430;48.818;9.244;2022-07-06T04:29:41;17.10;99.90
2447;DHT22;26430;48.818;9.244;2022-07-06T04:32:06;17.50;99.90
2447;DHT22;26430;48.818;9.244;2022-07-06T04:34:32;17.30;99.90
2447;DHT22;26430;48.818;9.244;2022-07-06T04:36:58;17.40;99.90
2447;DHT22;26430;48.818;9.244;2022-07-06T04:39:24;17.30;99.90
2447;DHT22;26430;48.818;9.244;2022-07-06T04:41:49;17.40;99.90
2447;DHT22;26430;48.818;9.244;2022-07-06T04:44:15;17.40;99.90
2447;DHT22;26430;48.818;9.244;2022-07-06T04:46:41;17.40;99.90
2447;DHT22;26430;48.818;9.244;2022-07-06T04:49:06;17.40;99.90
2447;DHT22;26430;48.818;9.244;2022-07-06T04:51:32;17.40;99.90
2447;DHT22;26430;48.818;9.244;2022-07-06T04:53:58;17.40;99.90
2447;DHT22;26430;48.818;9.244;2022-07-06T04:56:23;17.40;99.90
2447;DHT22;26430;48.818;9.244;2022-07-06T04:58:49;17.40;99.90
2447;DHT22;26430;48.818;9.244;2022-07-06T05:01:15;17.40;99.90
2447;DHT22;26430;48.818;9.244;2022-07-06T05:03:40;17.40;99.90
2447;DHT22;26430;48.818;9.244;2022-07-06T05:06:07;17.50;99.90
2447;DHT22;26430;48.818;9.244;2022-07-06T05:08:33;17.70;99.90
2447;DHT22;26430;48.818;9.244;2022-07-06T05:11:00;17.80;99.90
2447;DHT22;26430;48.818;9.244;2022-07-06T05:13:26;17.80;99.90
2447;DHT22;26430;48.818;9.244;2022-07-06T05:15:51;17.90;99.90
2447;DHT22;26430;48.818;9.244;2022-07-06T05:18:17;17.90;99.90
2447;DHT22;26430;48.818;9.244;2022-07-06T05:20:43;18.00;99.90
2447;DHT22;26430;48.818;9.244;2022-07-06T05:23:09;18.00;99.90
2447;DHT22;26430;48.818;9.244;2022-07-06T05:25:35;18.10;99.90
2447;DHT22;26430;48.818;9.244;2022-07-06T05:28:02;18.10;99.90
2447;DHT22;26430;48.818;9.244;2022-07-06T05:30:28;17.90;99.90
2447;DHT22;26430;48.818;9.244;2022-07-06T05:32:54;18.10;99.90
2447;DHT22;26430;48.818;9.244;2022-07-06T05:35:20;17.80;99.90
2447;DHT22;26430;48.818;9.244;2022-07-06T05:37:45;17.90;99.90
2447;DHT22;26430;48.818;9.244;2022-07-06T05:40:11;18.10;99.90
2447;DHT22;26430;48.818;9.244;2022-07-06T05:42:37;18.20;99.90
2447;DHT22;26430;48.818;9.244;2022-07-06T05:45:03;18.30;99.90
2447;DHT22;26430;48.818;9.244;2022-07-06T05:47:29;18.30;99.90
2447;DHT22;26430;48.818;9.244;2022-07-06T05:50:14;18.20;99.90
2447;DHT22;26430;48.818;9.244;2022-07-06T05:52:41;18.30;99.90
2447;DHT22;26430;48.818;9.244;2022-07-06T05:55:09;18.30;99.90
2447;DHT22;26430;48.818;9.244;2022-07-06T05:57:34;18.30;99.90
2447;DHT22;26430;48.818;9.244;2022-07-06T06:00:00;18.30;99.90
2447;DHT22;26430;48.818;9.244;2022-07-06T06:02:26;18.20;99.90
2447;DHT22;26430;48.818;9.244;2022-07-06T06:04:53;18.50;99.90
2447;DHT22;26430;48.818;9.244;2022-07-06T06:07:19;18.60;99.90
2447;DHT22;26430;48.818;9.244;2022-07-06T06:09:44;18.50;99.90
2447;DHT22;26430;48.818;9.244;2022-07-06T06:12:10;18.60;99.90
2447;DHT22;26430;48.818;9.244;2022-07-06T06:14:35;18.70;99.90
2447;DHT22;26430;48.818;9.244;2022-07-06T06:17:01;18.80;99.90
2447;DHT22;26430;48.818;9.244;2022-07-06T06:19:27;18.80;99.90
2447;DHT22;26430;48.818;9.244;2022-07-06T06:21:52;18.70;99.90
2447;DHT22;26430;48.818;9.244;2022-07-06T06:24:18;18.70;99.90
2447;DHT22;26430;48.818;9.244;2022-07-06T06:26:44;18.80;99.90
2447;DHT22;26430;48.818;9.244;2022-07-06T06:29:09;18.80;99.90
2447;DHT22;26430;48.818;9.244;2022-07-06T06:31:35;18.80;99.90
2447;DHT22;26430;48.818;9.244;2022-07-06T06:34:00;19.00;99.90
2447;DHT22;26430;48.818;9.244;2022-07-06T06:36:27;18.90;99.90
2447;DHT22;26430;48.818;9.244;2022-07-06T06:38:52;19.00;99.90
2447;DHT22;26430;48.818;9.244;2022-07-06T06:41:18;19.00;99.90
2447;DHT22;26430;48.818;9.244;2022-07-06T06:43:47;19.10;99.90
2447;DHT22;26430;48.818;9.244;2022-07-06T06:46:12;19.00;99.90
2447;DHT22;26430;48.818;9.244;2022-07-06T06:48:38;19.10;99.90
2447;DHT22;26430;48.818;9.244;2022-07-06T06:51:04;19.20;99.90
2447;DHT22;26430;48.818;9.244;2022-07-06T06:53:30;19.00;99.90
2447;DHT22;26430;48.818;9.244;2022-07-06T06:55:55;19.00;99.90
2447;DHT22;26430;48.818;9.244;2022-07-06T06:58:21;19.30;99.90
2447;DHT22;26430;48.818;9.244;2022-07-06T07:00:47;19.20;99.90
2447;DHT22;26430;48.818;9.244;2022-07-06T07:03:13;19.10;99.90
2447;DHT22;26430;48.818;9.244;2022-07-06T07:05:38;19.30;99.90
2447;DHT22;26430;48.818;9.244;2022-07-06T07:08:05;19.40;99.90
2447;DHT22;26430;48.818;9.244;2022-07-06T07:10:31;19.40;99.90
2447;DHT22;26430;48.818;9.244;2022-07-06T07:12:57;19.40;99.90
2447;DHT22;26430;48.818;9.244;2022-07-06T07:15:23;19.50;99.90
2447;DHT22;26430;48.818;9.244;2022-07-06T07:17:49;19.30;99.90
2447;DHT22;26430;48.818;9.244;2022-07-06T07:20:15;19.40;99.90
2447;DHT22;26430;48.818;9.244;2022-07-06T07:22:40;19.50;99.90
2447;DHT22;26430;48.818;9.244;2022-07-06T07:25:06;19.60;99.90
2447;DHT22;26430;48.818;9.244;2022-07-06T07:27:32;19.70;99.90
2447;DHT22;26430;48.818;9.244;2022-07-06T07:29:58;19.60;99.90
2447;DHT22;26430;48.818;9.244;2022-07-06T07:32:24;19.60;99.90
2447;DHT22;26430;48.818;9.244;2022-07-06T07:34:49;19.70;99.90
2447;DHT22;26430;48.818;9.244;2022-07-06T07:37:16;19.70;99.90
2447;DHT22;26430;48.818;9.244;2022-07-06T07:39:43;19.70;99.90
2447;DHT22;26430;48.818;9.244;2022-07-06T07:42:09;19.70;99.90
2447;DHT22;26430;48.818;9.244;2022-07-06T07:44:34;19.50;99.90
2447;DHT22;26430;48.818;9.244;2022-07-06T07:47:00;19.60;99.90
2447;DHT22;26430;48.818;9.244;2022-07-06T07:49:25;19.80;99.90
2447;DHT22;26430;48.818;9.244;2022-07-06T07:51:51;19.90;99.90
2447;DHT22;26430;48.818;9.244;2022-07-06T07:54:17;20.10;99.90
2447;DHT22;26430;48.818;9.244;2022-07-06T07:56:43;20.10;99.90
2447;DHT22;26430;48.818;9.244;2022-07-06T07:59:09;20.30;99.90
2447;DHT22;26430;48.818;9.244;2022-07-06T08:01:34;20.30;99.90
2447;DHT22;26430;48.818;9.244;2022-07-06T08:04:02;20.40;99.90
2447;DHT22;26430;48.818;9.244;2022-07-06T08:06:27;20.40;99.90
2447;DHT22;26430;48.818;9.244;2022-07-06T08:08:53;20.40;99.90
2447;DHT22;26430;48.818;9.244;2022-07-06T08:11:19;20.40;99.90
2447;DHT22;26430;48.818;9.244;2022-07-06T08:13:46;20.50;99.90
2447;DHT22;26430;48.818;9.244;2022-07-06T08:16:11;20.30;99.90
2447;DHT22;26430;48.818;9.244;2022-07-06T08:18:37;20.40;99.90
2447;DHT22;26430;48.818;9.244;2022-07-06T08:21:04;20.50;99.90
2447;DHT22;26430;48.818;9.244;2022-07-06T08:23:29;20.60;99.90
2447;DHT22;26430;48.818;9.244;2022-07-06T08:25:55;20.70;99.90
2447;DHT22;26430;48.818;9.244;2022-07-06T08:28:21;20.70;99.90
2447;DHT22;26430;48.818;9.244;2022-07-06T08:30:47;20.70;99.90
2447;DHT22;26430;48.818;9.244;2022-07-06T08:33:13;20.80;99.90
2447;DHT22;26430;48.818;9.244;2022-07-06T08:35:39;20.90;99.90
2447;DHT22;26430;48.818;9.244;2022-07-06T08:38:05;21.00;99.90
2447;DHT22;26430;48.818;9.244;2022-07-06T08:40:33;20.90;99.90
2447;DHT22;26430;48.818;9.244;2022-07-06T08:43:00;20.70;99.90
2447;DHT22;26430;48.818;9.244;2022-07-06T08:45:26;20.80;99.90
2447;DHT22;26430;48.818;9.244;2022-07-06T08:47:54;20.90;99.90
2447;DHT22;26430;48.818;9.244;2022-07-06T08:50:20;21.00;99.90
2447;DHT22;26430;48.818;9.244;2022-07-06T08:52:47;21.10;99.90
2447;DHT22;26430;48.818;9.244;2022-07-06T08:55:14;21.20;99.90
2447;DHT22;26430;48.818;9.244;2022-07-06T08:57:40;21.30;99.90
2447;DHT22;26430;48.818;9.244;2022-07-06T09:00:09;21.20;99.90
2447;DHT22;26430;48.818;9.244;2022-07-06T09:02:36;21.10;99.90
2447;DHT22;26430;48.818;9.244;2022-07-06T09:05:03;21.10;99.90
2447;DHT22;26430;48.818;9.244;2022-07-06T09:07:29;21.30;99.90
2447;DHT22;26430;48.818;9.244;2022-07-06T09:09:56;21.00;99.90
2447;DHT22;26430;48.818;9.244;2022-07-06T09:12:26;21.10;99.90
2447;DHT22;26430;48.818;9.244;2022-07-06T09:14:57;21.20;99.90
2447;DHT22;26430;48.818;9.244;2022-07-06T09:17:28;21.20;99.90
2447;DHT22;26430;48.818;9.244;2022-07-06T09:19:55;21.30;99.90
2447;DHT22;26430;48.818;9.244;2022-07-06T09:22:31;21.50;99.90
2447;DHT22;26430;48.818;9.244;2022-07-06T09:25:05;21.70;99.90
2447;DHT22;26430;48.818;9.244;2022-07-06T09:27:40;21.70;99.90
2447;DHT22;26430;48.818;9.244;2022-07-06T09:30:08;21.70;99.90
2447;DHT22;26430;48.818;9.244;2022-07-06T09:32:41;21.70;99.90
2447;DHT22;26430;48.818;9.244;2022-07-06T09:35:08;21.70;99.90
2447;DHT22;26430;48.818;9.244;2022-07-06T09:37:34;22.00;99.90
2447;DHT22;26430;48.818;9.244;2022-07-06T09:40:00;22.10;99.90
2447;DHT22;26430;48.818;9.244;2022-07-06T09:42:26;22.30;99.90
2447;DHT22;26430;48.818;9.244;2022-07-06T09:44:53;22.40;99.80
2447;DHT22;26430;48.818;9.244;2022-07-06T09:47:19;22.50;99.20
2447;DHT22;26430;48.818;9.244;2022-07-06T09:49:45;22.50;99.60
2447;DHT22;26430;48.818;9.244;2022-07-06T09:52:11;22.50;98.80
2447;DHT22;26430;48.818;9.244;2022-07-06T09:54:38;22.40;98.20
2447;DHT22;26430;48.818;9.244;2022-07-06T09:57:05;22.50;98.50
2447;DHT22;26430;48.818;9.244;2022-07-06T09:59:33;22.60;98.20
2447;DHT22;26430;48.818;9.244;2022-07-06T10:02:01;22.60;98.20
2447;DHT22;26430;48.818;9.244;2022-07-06T10:04:28;22.70;98.50
2447;DHT22;26430;48.818;9.244;2022-07-06T10:06:56;22.60;98.70
2447;DHT22;26430;48.818;9.244;2022-07-06T10:09:23;22.80;98.50
2447;DHT22;26430;48.818;9.244;2022-07-06T10:11:55;22.80;99.40
2447;DHT22;26430;48.818;9.244;2022-07-06T10:14:23;22.80;99.00
2447;DHT22;26430;48.818;9.244;2022-07-06T10:16:49;22.80;98.70
2447;DHT22;26430;48.818;9.244;2022-07-06T10:19:17;23.00;98.80
2447;DHT22;26430;48.818;9.244;2022-07-06T10:21:44;23.20;98.60
2447;DHT22;26430;48.818;9.244;2022-07-06T10:24:11;23.40;97.50
2447;DHT22;26430;48.818;9.244;2022-07-06T10:26:38;23.40;97.80
2447;DHT22;26430;48.818;9.244;2022-07-06T10:29:06;23.30;98.00
2447;DHT22;26430;48.818;9.244;2022-07-06T10:31:34;23.30;96.90
2447;DHT22;26430;48.818;9.244;2022-07-06T10:34:02;23.40;97.20
2447;DHT22;26430;48.818;9.244;2022-07-06T10:36:28;23.60;97.10
2447;DHT22;26430;48.818;9.244;2022-07-06T10:38:55;23.80;97.40
2447;DHT22;26430;48.818;9.244;2022-07-06T10:41:31;24.10;97.30
2447;DHT22;26430;48.818;9.244;2022-07-06T10:43:57;24.60;96.00
2447;DHT22;26430;48.818;9.244;2022-07-06T10:46:28;25.40;94.60
2447;DHT22;26430;48.818;9.244;2022-07-06T10:48:55;26.30;92.80
2447;DHT22;26430;48.818;9.244;2022-07-06T10:51:29;27.50;90.30
2447;DHT22;26430;48.818;9.244;2022-07-06T10:53:59;28.70;87.90
2447;DHT22;26430;48.818;9.244;2022-07-06T10:56:42;28.90;83.90
2447;DHT22;26430;48.818;9.244;2022-07-06T10:59:12;29.10;80.80
2447;DHT22;26430;48.818;9.244;2022-07-06T11:01:38;28.80;79.10
2447;DHT22;26430;48.818;9.244;2022-07-06T11:04:09;28.70;78.20
2447;DHT22;26430;48.818;9.244;2022-07-06T11:06:39;28.30;80.10
2447;DHT22;26430;48.818;9.244;2022-07-06T11:09:10;28.30;78.30
2447;DHT22;26430;48.818;9.244;2022-07-06T11:14:11;28.20;79.10
2447;DHT22;26430;48.818;9.244;2022-07-06T11:19:19;28.20;75.80
2447;DHT22;26430;48.818;9.244;2022-07-06T11:21:54;27.00;75.70
2447;DHT22;26430;48.818;9.244;2022-07-06T11:24:29;27.40;79.60
2447;DHT22;26430;48.818;9.244;2022-07-06T11:26:56;27.00;80.20
2447;DHT22;26430;48.818;9.244;2022-07-06T11:29:24;26.80;81.20
2447;DHT22;26430;48.818;9.244;2022-07-06T11:31:55;26.50;82.00
2447;DHT22;26430;48.818;9.244;2022-07-06T11:34:23;26.20;82.90
2447;DHT22;26430;48.818;9.244;2022-07-06T11:36:54;26.10;83.30
2447;DHT22;26430;48.818;9.244;2022-07-06T11:39:19;26.20;83.10
2447;DHT22;26430;48.818;9.244;2022-07-06T11:41:45;26.30;84.70
2447;DHT22;26430;48.818;9.244;2022-07-06T11:44:11;26.60;82.90
2447;DHT22;26430;48.818;9.244;2022-07-06T11:46:37;26.10;84.00
2447;DHT22;26430;48.818;9.244;2022-07-06T11:49:04;25.80;83.20
2447;DHT22;26430;48.818;9.244;2022-07-06T11:51:32;24.70;85.40
2447;DHT22;26430;48.818;9.244;2022-07-06T11:54:00;24.90;88.90
2447;DHT22;26430;48.818;9.244;2022-07-06T11:56:29;25.50;87.60
2447;DHT22;26430;48.818;9.244;2022-07-06T11:59:00;25.90;86.60
2447;DHT22;26430;48.818;9.244;2022-07-06T12:01:27;26.30;85.70
2447;DHT22;26430;48.818;9.244;2022-07-06T12:03:57;26.20;85.10
2447;DHT22;26430;48.818;9.244;2022-07-06T12:06:25;26.10;83.90
2447;DHT22;26430;48.818;9.244;2022-07-06T12:09:01;25.90;85.20
2447;DHT22;26430;48.818;9.244;2022-07-06T12:11:31;25.70;85.60
2447;DHT22;26430;48.818;9.244;2022-07-06T12:13:59;25.50;85.50
2447;DHT22;26430;48.818;9.244;2022-07-06T12:16:34;25.60;86.40
2447;DHT22;26430;48.818;9.244;2022-07-06T12:19:03;25.90;86.20
2447;DHT22;26430;48.818;9.244;2022-07-06T12:21:28;26.00;86.40
2447;DHT22;26430;48.818;9.244;2022-07-06T12:23:55;26.00;85.10
2447;DHT22;26430;48.818;9.244;2022-07-06T12:26:26;25.90;84.20
2447;DHT22;26430;48.818;9.244;2022-07-06T12:29:10;25.80;84.50
2447;DHT22;26430;48.818;9.244;2022-07-06T12:31:55;25.80;85.00
2447;DHT22;26430;48.818;9.244;2022-07-06T12:34:22;26.00;85.90
2447;DHT22;26430;48.818;9.244;2022-07-06T12:36:56;26.10;85.40
2447;DHT22;26430;48.818;9.244;2022-07-06T12:39:24;25.80;84.40
2447;DHT22;26430;48.818;9.244;2022-07-06T12:41:52;25.80;86.30
2447;DHT22;26430;48.818;9.244;2022-07-06T12:44:23;25.80;86.70
2447;DHT22;26430;48.818;9.244;2022-07-06T12:46:50;25.90;85.30
2447;DHT22;26430;48.818;9.244;2022-07-06T12:54:33;25.50;86.20
2447;DHT22;26430;48.818;9.244;2022-07-06T12:57:03;25.90;83.20
2447;DHT22;26430;48.818;9.244;2022-07-06T12:59:31;26.30;82.80
2447;DHT22;26430;48.818;9.244;2022-07-06T13:01:57;26.70;83.10
2447;DHT22;26430;48.818;9.244;2022-07-06T13:04:28;27.00;81.00
2447;DHT22;26430;48.818;9.244;2022-07-06T13:06:54;26.70;81.50
2447;DHT22;26430;48.818;9.244;2022-07-06T13:09:21;26.50;82.40
2447;DHT22;26430;48.818;9.244;2022-07-06T13:11:48;26.70;82.10
2447;DHT22;26430;48.818;9.244;2022-07-06T13:14:15;26.40;81.30
2447;DHT22;26430;48.818;9.244;2022-07-06T13:16:42;26.50;80.50
2447;DHT22;26430;48.818;9.244;2022-07-06T13:19:08;26.40;81.00
2447;DHT22;26430;48.818;9.244;2022-07-06T13:21:35;26.40;80.60
2447;DHT22;26430;48.818;9.244;2022-07-06T13:24:01;26.70;80.70
2447;DHT22;26430;48.818;9.244;2022-07-06T13:26:27;26.10;80.10
2447;DHT22;26430;48.818;9.244;2022-07-06T13:28:53;26.00;81.30
2447;DHT22;26430;48.818;9.244;2022-07-06T13:31:18;26.00;81.50
2447;DHT22;26430;48.818;9.244;2022-07-06T13:33:44;26.50;80.80
2447;DHT22;26430;48.818;9.244;2022-07-06T13:36:09;26.80;80.30
2447;DHT22;26430;48.818;9.244;2022-07-06T13:38:35;26.80;79.60
2447;DHT22;26430;48.818;9.244;2022-07-06T13:41:01;27.20;78.80
2447;DHT22;26430;48.818;9.244;2022-07-06T13:43:27;27.50;78.00
2447;DHT22;26430;48.818;9.244;2022-07-06T13:46:05;27.20;77.80
2447;DHT22;26430;48.818;9.244;2022-07-06T13:48:32;27.70;78.10
2447;DHT22;26430;48.818;9.244;2022-07-06T13:50:58;28.00;77.00
2447;DHT22;26430;48.818;9.244;2022-07-06T13:53:24;28.20;74.70
2447;DHT22;26430;48.818;9.244;2022-07-06T13:55:50;27.60;75.70
2447;DHT22;26430;48.818;9.244;2022-07-06T13:58:16;26.90;78.60
2447;DHT22;26430;48.818;9.244;2022-07-06T14:00:41;27.00;75.20
2447;DHT22;26430;48.818;9.244;2022-07-06T14:03:07;27.30;77.60
2447;DHT22;26430;48.818;9.244;2022-07-06T14:05:34;27.30;76.30
2447;DHT22;26430;48.818;9.244;2022-07-06T14:08:00;27.30;76.50
2447;DHT22;26430;48.818;9.244;2022-07-06T14:10:26;26.90;76.10
2447;DHT22;26430;48.818;9.244;2022-07-06T14:12:52;26.60;76.20
2447;DHT22;26430;48.818;9.244;2022-07-06T14:15:18;26.20;78.50
2447;DHT22;26430;48.818;9.244;2022-07-06T14:17:44;26.10;78.20
2447;DHT22;26430;48.818;9.244;2022-07-06T14:20:10;26.30;78.20
2447;DHT22;26430;48.818;9.244;2022-07-06T14:22:37;26.80;79.10
2447;DHT22;26430;48.818;9.244;2022-07-06T14:25:03;27.30;76.50
2447;DHT22;26430;48.818;9.244;2022-07-06T14:27:31;27.30;76.10
2447;DHT22;26430;48.818;9.244;2022-07-06T14:29:56;27.40;76.10
2447;DHT22;26430;48.818;9.244;2022-07-06T14:32:22;27.70;75.80
2447;DHT22;26430;48.818;9.244;2022-07-06T14:34:47;27.90;75.10
2447;DHT22;26430;48.818;9.244;2022-07-06T14:37:13;27.70;74.30
2447;DHT22;26430;48.818;9.244;2022-07-06T14:39:39;27.40;76.30
2447;DHT22;26430;48.818;9.244;2022-07-06T14:42:05;27.30;74.60
2447;DHT22;26430;48.818;9.244;2022-07-06T14:44:30;27.40;74.20
2447;DHT22;26430;48.818;9.244;2022-07-06T14:46:56;27.20;74.00
2447;DHT22;26430;48.818;9.244;2022-07-06T14:49:22;27.20;76.70
2447;DHT22;26430;48.818;9.244;2022-07-06T14:51:48;27.30;74.30
2447;DHT22;26430;48.818;9.244;2022-07-06T14:54:14;27.60;74.30
2447;DHT22;26430;48.818;9.244;2022-07-06T14:56:40;27.40;72.80
2447;DHT22;26430;48.818;9.244;2022-07-06T14:59:05;27.30;74.40
2447;DHT22;26430;48.818;9.244;2022-07-06T15:01:31;27.10;73.60
2447;DHT22;26430;48.818;9.244;2022-07-06T15:03:57;27.10;74.20
2447;DHT22;26430;48.818;9.244;2022-07-06T15:06:22;27.40;73.40
2447;DHT22;26430;48.818;9.244;2022-07-06T15:08:48;27.20;73.40
2447;DHT22;26430;48.818;9.244;2022-07-06T15:11:14;27.00;73.00
2447;DHT22;26430;48.818;9.244;2022-07-06T15:13:39;27.20;74.40
2447;DHT22;26430;48.818;9.244;2022-07-06T15:16:05;27.00;73.60
2447;DHT22;26430;48.818;9.244;2022-07-06T15:18:31;26.70;73.40
2447;DHT22;26430;48.818;9.244;2022-07-06T15:20:57;26.80;74.70
2447;DHT22;26430;48.818;9.244;2022-07-06T15:23:23;26.90;74.40
2447;DHT22;26430;48.818;9.244;2022-07-06T15:25:48;27.10;73.60
2447;DHT22;26430;48.818;9.244;2022-07-06T15:28:14;27.40;74.00
2447;DHT22;26430;48.818;9.244;2022-07-06T15:30:41;27.20;72.00
2447;DHT22;26430;48.818;9.244;2022-07-06T15:33:07;27.00;72.10
2447;DHT22;26430;48.818;9.244;2022-07-06T15:35:34;26.50;72.10
2447;DHT22;26430;48.818;9.244;2022-07-06T15:37:59;26.40;73.10
2447;DHT22;26430;48.818;9.244;2022-07-06T15:40:26;26.30;74.80
2447;DHT22;26430;48.818;9.244;2022-07-06T15:42:54;26.10;73.80
2447;DHT22;26430;48.818;9.244;2022-07-06T15:45:19;26.00;73.80
2447;DHT22;26430;48.818;9.244;2022-07-06T15:47:45;25.90;73.70
2447;DHT22;26430;48.818;9.244;2022-07-06T15:50:11;25.70;74.40
2447;DHT22;26430;48.818;9.244;2022-07-06T15:52:37;25.80;75.30
2447;DHT22;26430;48.818;9.244;2022-07-06T15:55:03;25.80;75.10